Time;durP1;ratioP1;P1;durP2;ratioP2;P2;SDS_P1;SDS_P2;PMS_P1;PMS_P2;Temp;Humidity;BMP_temperature;BMP_pressure;BME280_temperature;BME280_humidity;BME280_pressure;Samples;Min_cycle;Max_cycle;Signal;HPM_P1;HPM_P2
2022/02/05 00:02:47;;;;;;;13.50;2.50;;;20.60;99.90;;;;;;5053992;28;20381;-64
2022/02/05 00:05:18;;;;;;;14.10;2.05;;;20.60;99.90;;;;;;5053454;28;20028;-64
2022/02/05 00:07:48;;;;;;;13.18;1.83;;;20.40;99.90;;;;;;5056073;28;20017;-65
2022/02/05 00:10:32;;;;;;;8.88;1.02;;;20.30;99.90;;;;;;5052547;28;20017;-65
2022/02/05 00:15:38;;;;;;;11.70;1.83;;;20.30;99.90;;;;;;5053588;28;20107;-64
2022/02/05 00:41:13;;;;;;;7.75;1.38;;;20.00;99.90;;;;;;5049993;28;20402;-64
2022/02/05 00:43:17;;;;;;;6.63;1.05;;;20.20;99.90;;;;;;5036913;28;20033;-64
2022/02/05 00:45:51;;;;;;;8.90;1.75;;;20.40;99.90;;;;;;5044083;28;20851;-65
2022/02/05 00:48:19;;;;;;;6.68;1.05;;;20.40;99.90;;;;;;5046455;28;20024;-65
2022/02/05 00:51:08;;;;;;;4.60;1.02;;;20.40;99.90;;;;;;5049776;28;20045;-63
2022/02/05 00:53:37;;;;;;;6.80;0.73;;;20.40;99.90;;;;;;5049437;28;20039;-64
2022/02/05 00:56:12;;;;;;;10.52;1.55;;;21.20;99.90;;;;;;5051299;28;20430;-63
2022/02/05 00:58:40;;;;;;;8.50;0.95;;;21.50;99.90;;;;;;5041819;28;20025;-64
2022/02/05 01:01:10;;;;;;;7.13;1.13;;;21.70;99.90;;;;;;5048470;28;20130;-65
2022/02/05 01:03:38;;;;;;;7.40;0.70;;;21.70;99.90;;;;;;5046004;28;20132;-64
2022/02/05 01:06:07;;;;;;;6.25;0.63;;;22.40;99.90;;;;;;5051795;28;20481;-64
2022/02/05 01:08:37;;;;;;;11.02;1.42;;;22.90;99.90;;;;;;5054001;28;20021;-64
2022/02/05 01:11:04;;;;;;;5.40;0.60;;;23.30;99.90;;;;;;5041543;28;20493;-64
2022/02/05 01:13:33;;;;;;;4.95;0.52;;;23.40;99.90;;;;;;5055780;28;20045;-64
2022/02/05 01:16:13;;;;;;;5.65;0.75;;;23.50;99.90;;;;;;5055766;28;20021;-66
2022/02/05 01:18:42;;;;;;;7.03;1.15;;;23.70;99.90;;;;;;5054608;28;20374;-65
2022/02/05 01:21:19;;;;;;;5.00;0.63;;;23.80;99.90;;;;;;5041529;28;20107;-66
2022/02/05 01:23:51;;;;;;;7.57;0.90;;;23.90;99.90;;;;;;5052649;28;20081;-66
2022/02/05 01:28:52;;;;;;;5.43;0.80;;;23.50;99.90;;;;;;5053915;28;20021;-66
2022/02/05 01:31:25;;;;;;;8.10;1.20;;;23.00;99.90;;;;;;5052565;28;20474;-64
2022/02/05 01:34:20;;;;;;;6.82;1.40;;;22.60;99.90;;;;;;5054418;28;20033;-66
2022/02/05 02:06:32;;;;;;;5.97;1.33;;;24.80;99.90;;;;;;5000535;28;20033;-67
2022/02/05 02:11:48;;;;;;;3.47;0.50;;;24.60;99.90;;;;;;5012130;28;20073;-67
2022/02/05 02:15:21;;;;;;;7.03;0.73;;;24.60;99.90;;;;;;4999097;28;20133;-65
2022/02/05 02:22:35;;;;;;;3.72;0.60;;;25.00;99.90;;;;;;5008300;28;20066;-67
2022/02/05 02:25:10;;;;;;;3.70;0.57;;;25.20;99.60;;;;;;5004498;28;20546;-66
2022/02/05 02:27:54;;;;;;;3.10;0.70;;;25.20;99.90;;;;;;5003087;28;20030;-64
2022/02/05 02:30:25;;;;;;;5.25;0.73;;;25.00;99.80;;;;;;4999353;28;20026;-67
2022/02/05 02:33:03;;;;;;;2.20;0.30;;;24.70;99.60;;;;;;4999225;28;20113;-67
2022/02/05 02:35:32;;;;;;;4.88;0.63;;;24.60;99.80;;;;;;5003877;28;20104;-66
2022/02/05 02:38:09;;;;;;;5.28;0.50;;;24.60;99.90;;;;;;5003680;28;20030;-67
2022/02/05 02:41:00;;;;;;;5.32;0.40;;;24.70;99.90;;;;;;5000802;28;20054;-67
2022/02/05 02:43:31;;;;;;;6.93;0.43;;;25.00;99.90;;;;;;5003706;28;20022;-66
2022/02/05 02:45:58;;;;;;;4.25;0.40;;;25.10;99.90;;;;;;5005889;28;20026;-66
2022/02/05 02:48:26;;;;;;;2.45;0.63;;;24.90;99.90;;;;;;5002710;28;20022;-66
2022/02/05 02:56:33;;;;;;;4.95;0.50;;;24.00;99.90;;;;;;4998611;28;20121;-66
2022/02/05 02:59:07;;;;;;;7.10;0.75;;;24.20;99.90;;;;;;5001262;28;20014;-65
2022/02/05 03:01:41;;;;;;;4.28;1.00;;;23.80;99.90;;;;;;5002803;28;20494;-66
2022/02/05 03:04:08;;;;;;;5.95;0.47;;;23.60;99.90;;;;;;5003152;28;20029;-65
2022/02/05 03:06:35;;;;;;;3.33;0.30;;;23.40;99.90;;;;;;5009684;28;20030;-67
2022/02/05 03:09:03;;;;;;;4.55;0.80;;;23.50;99.90;;;;;;5011083;28;20029;-65
2022/02/05 03:11:30;;;;;;;4.40;0.60;;;23.80;99.90;;;;;;5004302;28;20037;-66
2022/02/05 03:13:57;;;;;;;3.53;0.40;;;23.70;99.90;;;;;;5000975;28;20651;-65
2022/02/05 03:16:28;;;;;;;8.32;1.05;;;23.60;99.90;;;;;;5003809;28;20022;-65
2022/02/05 03:21:25;;;;;;;7.40;0.82;;;23.70;99.90;;;;;;5005930;28;20033;-66
2022/02/05 03:23:55;;;;;;;5.93;0.60;;;24.00;99.90;;;;;;4995855;28;20030;-65
2022/02/05 03:26:22;;;;;;;6.07;0.80;;;24.00;99.90;;;;;;4998428;28;20045;-66
2022/02/05 03:28:50;;;;;;;6.43;0.55;;;23.60;99.90;;;;;;4996391;28;20030;-66
2022/02/05 03:31:17;;;;;;;4.00;0.73;;;23.80;99.90;;;;;;5002064;28;20387;-65
2022/02/05 03:33:44;;;;;;;6.22;1.52;;;24.10;99.90;;;;;;5006921;28;20107;-66
2022/02/05 03:36:12;;;;;;;6.65;1.15;;;23.90;99.90;;;;;;4996740;28;20079;-66
2022/02/05 03:38:39;;;;;;;5.95;1.42;;;23.40;99.90;;;;;;4996963;28;20029;-66
2022/02/05 03:41:06;;;;;;;8.05;0.85;;;23.10;99.90;;;;;;4999248;28;20145;-66
2022/02/05 03:43:33;;;;;;;3.22;0.70;;;23.50;99.90;;;;;;5007582;28;20030;-65
2022/02/05 03:46:01;;;;;;;3.75;0.60;;;23.50;99.90;;;;;;4996504;28;20652;-65
2022/02/05 03:48:28;;;;;;;6.05;0.80;;;23.20;99.90;;;;;;5008174;28;20100;-66
2022/02/05 03:50:55;;;;;;;4.15;0.70;;;23.30;99.90;;;;;;5011649;28;20084;-66
2022/02/05 03:53:22;;;;;;;4.32;0.75;;;23.40;99.90;;;;;;5006513;28;20486;-66
2022/02/05 03:55:50;;;;;;;5.53;0.52;;;23.70;99.90;;;;;;5008562;28;20038;-66
2022/02/05 03:58:18;;;;;;;4.07;0.88;;;24.10;99.90;;;;;;5003798;28;20072;-67
2022/02/05 04:00:45;;;;;;;4.47;0.50;;;24.10;99.90;;;;;;5002960;28;20446;-66
2022/02/05 04:03:13;;;;;;;7.60;1.02;;;24.10;99.90;;;;;;5001767;28;20027;-67
2022/02/05 04:05:41;;;;;;;6.88;1.23;;;24.10;99.90;;;;;;5008759;28;20022;-67
2022/02/05 04:08:10;;;;;;;4.85;0.70;;;23.80;99.90;;;;;;5004845;28;20026;-66
2022/02/05 04:10:47;;;;;;;4.90;0.63;;;23.60;99.90;;;;;;5003278;28;20054;-66
2022/02/05 04:18:49;;;;;;;3.58;0.40;;;23.10;99.90;;;;;;5006220;28;20032;-66
2022/02/05 04:21:16;;;;;;;7.07;0.73;;;22.80;99.90;;;;;;5010023;28;20021;-65
2022/02/05 04:23:44;;;;;;;5.93;0.90;;;22.90;99.90;;;;;;4995176;28;20033;-66
2022/02/05 04:26:12;;;;;;;5.80;1.20;;;23.10;99.90;;;;;;4998720;28;20458;-66
2022/02/05 04:28:39;;;;;;;5.97;1.10;;;23.30;99.90;;;;;;5006520;28;20029;-65
2022/02/05 04:31:06;;;;;;;11.13;1.50;;;23.50;99.90;;;;;;4999507;28;20023;-66
2022/02/05 04:33:34;;;;;;;8.35;0.90;;;23.40;99.90;;;;;;5000409;28;20081;-65
2022/02/05 04:36:02;;;;;;;10.55;1.42;;;23.30;99.90;;;;;;5015351;28;20475;-66
2022/02/05 04:38:30;;;;;;;7.38;1.98;;;23.10;99.90;;;;;;5009213;28;20033;-65
2022/02/05 04:41:37;;;;;;;6.80;1.75;;;22.90;99.90;;;;;;5006539;28;20038;-65
2022/02/05 04:49:30;;;;;;;5.07;1.23;;;22.70;99.90;;;;;;5007807;28;20455;-66
2022/02/05 05:00:08;;;;;;;5.47;1.27;;;23.40;99.90;;;;;;4997474;28;20045;-66
2022/02/05 05:03:01;;;;;;;9.38;0.98;;;23.20;99.90;;;;;;5001103;28;20548;-66
2022/02/05 05:21:44;;;;;;;6.95;0.93;;;22.50;99.90;;;;;;5004689;28;20434;-64
2022/02/05 05:24:12;;;;;;;10.07;1.60;;;22.50;99.90;;;;;;5015219;28;20402;-64
2022/02/05 05:26:39;;;;;;;6.57;0.88;;;22.40;99.90;;;;;;5005922;28;20040;-64
2022/02/05 05:29:06;;;;;;;6.38;0.90;;;22.40;99.90;;;;;;5007790;28;20026;-64
2022/02/05 05:31:33;;;;;;;5.05;0.50;;;22.40;99.90;;;;;;5005766;28;20027;-64
2022/02/05 05:34:01;;;;;;;5.60;0.93;;;22.30;99.90;;;;;;5020638;28;20033;-65
2022/02/05 05:36:29;;;;;;;6.53;0.90;;;22.20;99.90;;;;;;5011033;28;20061;-64
2022/02/05 05:39:02;;;;;;;7.03;1.08;;;22.20;99.90;;;;;;5038143;28;20029;-64
2022/02/05 05:41:31;;;;;;;11.10;1.45;;;22.30;99.90;;;;;;5008673;28;20058;-64
2022/02/05 05:46:42;;;;;;;5.60;0.60;;;22.40;99.90;;;;;;5018583;28;20026;-65
2022/02/05 05:49:15;;;;;;;5.35;1.13;;;22.40;99.90;;;;;;5007624;28;20122;-65
2022/02/05 05:51:45;;;;;;;6.25;0.75;;;22.40;99.90;;;;;;5004640;28;20037;-65
2022/02/05 05:54:12;;;;;;;7.30;1.70;;;22.30;99.90;;;;;;5015297;28;20022;-66
2022/02/05 05:56:41;;;;;;;7.88;1.45;;;22.30;99.90;;;;;;5007618;28;20029;-65
2022/02/05 05:59:09;;;;;;;11.55;1.33;;;22.40;99.90;;;;;;5003140;28;20037;-65
2022/02/05 06:01:40;;;;;;;5.35;1.05;;;22.30;99.90;;;;;;5004500;28;20052;-64
2022/02/05 06:04:07;;;;;;;6.00;1.55;;;22.30;99.90;;;;;;5006918;28;20014;-65
2022/02/05 06:06:34;;;;;;;11.02;2.45;;;22.20;99.90;;;;;;5000997;28;20402;-65
2022/02/05 06:09:01;;;;;;;11.85;2.90;;;22.20;99.90;;;;;;5004163;28;21644;-66
2022/02/05 06:11:29;;;;;;;7.60;1.23;;;22.20;99.90;;;;;;5002928;28;20042;-66
2022/02/05 06:13:56;;;;;;;10.25;1.40;;;22.20;99.90;;;;;;5011327;28;20395;-66
2022/02/05 06:16:29;;;;;;;7.05;1.50;;;22.20;99.90;;;;;;5012440;28;20109;-66
2022/02/05 06:18:57;;;;;;;6.00;1.20;;;22.30;99.90;;;;;;5012638;28;20080;-66
2022/02/05 06:21:25;;;;;;;6.78;0.93;;;22.40;99.90;;;;;;5011613;28;20092;-66
2022/02/05 06:23:52;;;;;;;7.15;1.17;;;22.30;99.90;;;;;;5002115;28;20465;-67
2022/02/05 06:26:19;;;;;;;5.57;1.00;;;22.30;99.90;;;;;;4993499;28;20050;-66
2022/02/05 06:28:47;;;;;;;7.05;1.35;;;22.30;99.90;;;;;;5004784;28;20049;-67
2022/02/05 06:31:14;;;;;;;7.47;1.05;;;22.30;99.90;;;;;;4993824;28;20406;-67
2022/02/05 06:33:41;;;;;;;6.18;1.38;;;22.40;99.90;;;;;;5006105;28;20030;-64
2022/02/05 06:36:08;;;;;;;7.68;1.13;;;22.30;99.90;;;;;;5014321;28;20029;-65
2022/02/05 06:38:36;;;;;;;12.38;2.05;;;22.30;99.90;;;;;;5007715;28;20042;-66
2022/02/05 06:41:03;;;;;;;8.38;1.20;;;22.30;99.90;;;;;;5004828;28;20049;-65
2022/02/05 06:43:30;;;;;;;11.93;1.88;;;22.30;99.90;;;;;;5003681;28;20033;-65
2022/02/05 06:45:58;;;;;;;8.27;0.88;;;22.30;99.90;;;;;;5005632;28;20030;-66
2022/02/05 06:48:25;;;;;;;11.35;2.03;;;22.20;99.90;;;;;;5009728;28;20026;-66
2022/02/05 06:50:53;;;;;;;5.88;0.98;;;22.20;99.90;;;;;;5009700;28;20089;-67
2022/02/05 06:53:20;;;;;;;4.65;0.77;;;22.20;99.90;;;;;;5005331;28;20391;-67
2022/02/05 06:55:47;;;;;;;8.82;1.13;;;22.10;99.90;;;;;;5015107;28;20025;-66
2022/02/05 06:58:14;;;;;;;7.28;1.17;;;22.10;99.90;;;;;;5000803;28;20490;-66
2022/02/05 07:00:42;;;;;;;13.00;1.15;;;22.10;99.90;;;;;;5007737;28;20030;-66
2022/02/05 07:03:11;;;;;;;7.43;1.80;;;22.10;99.90;;;;;;5006305;28;20026;-66
2022/02/05 07:05:38;;;;;;;8.60;1.42;;;22.00;99.90;;;;;;5009818;28;20042;-66
2022/02/05 07:08:06;;;;;;;6.65;1.13;;;22.10;99.90;;;;;;5004220;28;20498;-65
2022/02/05 07:10:33;;;;;;;6.72;0.95;;;22.10;99.90;;;;;;5006701;28;20049;-66
2022/02/05 07:15:32;;;;;;;5.03;0.77;;;22.10;99.90;;;;;;4999878;28;20141;-65
2022/02/05 07:18:17;;;;;;;10.07;1.80;;;22.00;99.90;;;;;;5004718;28;20046;-66
2022/02/05 07:20:51;;;;;;;6.65;1.13;;;21.90;99.90;;;;;;5010110;28;20602;-66
2022/02/05 07:31:23;;;;;;;8.98;1.65;;;21.90;99.90;;;;;;5012710;28;20044;-66
2022/02/05 07:33:50;;;;;;;8.77;0.90;;;22.00;99.90;;;;;;5013220;28;20026;-66
2022/02/05 07:36:19;;;;;;;8.70;3.45;;;21.90;99.90;;;;;;5004330;28;20088;-66
2022/02/05 07:41:13;;;;;;;11.10;2.35;;;21.90;99.90;;;;;;5012969;28;20423;-64
2022/02/05 07:43:41;;;;;;;9.43;1.48;;;21.90;99.90;;;;;;5015885;28;20044;-64
2022/02/05 07:46:12;;;;;;;11.70;1.35;;;21.80;99.90;;;;;;4997712;28;20046;-64
2022/02/05 07:48:40;;;;;;;12.13;1.70;;;21.80;99.90;;;;;;4996628;28;20022;-64
2022/02/05 07:51:08;;;;;;;9.70;2.22;;;21.80;99.90;;;;;;5010062;28;20426;-64
2022/02/05 07:53:36;;;;;;;9.45;1.40;;;21.70;99.90;;;;;;5015682;28;20041;-64
2022/02/05 07:56:05;;;;;;;9.10;1.20;;;21.70;99.90;;;;;;5016155;28;20022;-64
2022/02/05 07:58:34;;;;;;;8.88;1.75;;;21.60;99.90;;;;;;5016023;28;20025;-64
2022/02/05 08:01:03;;;;;;;11.43;0.93;;;21.60;99.90;;;;;;5015254;28;20505;-64
2022/02/05 08:03:31;;;;;;;7.75;1.70;;;21.60;99.90;;;;;;5020920;28;20474;-65
2022/02/05 08:06:00;;;;;;;5.55;0.90;;;21.60;99.90;;;;;;5017537;28;20037;-64
2022/02/05 08:08:34;;;;;;;10.27;1.83;;;21.70;99.90;;;;;;5018752;28;20018;-64
2022/02/05 08:11:05;;;;;;;12.40;2.42;;;21.70;99.90;;;;;;5026664;28;20029;-64
2022/02/05 08:13:34;;;;;;;10.70;1.38;;;21.70;99.90;;;;;;5035082;28;20041;-64
2022/02/05 08:16:48;;;;;;;4.47;1.85;;;21.70;99.90;;;;;;5016301;28;20463;-64
2022/02/05 08:18:52;;;;;;;7.82;1.00;;;21.60;99.90;;;;;;5011404;28;20046;-65
2022/02/05 08:21:19;;;;;;;6.38;1.08;;;21.60;99.90;;;;;;5013709;28;20018;-65
2022/02/05 08:23:46;;;;;;;7.03;1.15;;;21.60;99.90;;;;;;5013846;28;20034;-64
2022/02/05 08:26:14;;;;;;;9.90;1.20;;;21.50;99.90;;;;;;5015379;28;20438;-64
2022/02/05 08:28:42;;;;;;;7.82;0.95;;;21.50;99.90;;;;;;5014506;28;20029;-64
2022/02/05 08:31:09;;;;;;;10.55;1.25;;;21.50;99.90;;;;;;5014503;28;20048;-64
2022/02/05 08:33:41;;;;;;;10.10;1.25;;;21.50;99.90;;;;;;5014024;28;20495;-64
2022/02/05 08:36:12;;;;;;;8.80;1.70;;;21.50;99.90;;;;;;5014332;28;20049;-64
2022/02/05 08:38:39;;;;;;;11.77;1.35;;;21.50;99.90;;;;;;5014300;28;20462;-64
2022/02/05 08:41:06;;;;;;;6.50;1.00;;;21.40;99.90;;;;;;5007005;28;20045;-65
2022/02/05 08:43:33;;;;;;;7.55;1.23;;;21.40;99.90;;;;;;5009867;28;20021;-65
2022/02/05 08:46:01;;;;;;;10.13;1.00;;;21.40;99.90;;;;;;5014472;28;20454;-65
2022/02/05 08:48:28;;;;;;;14.43;2.40;;;21.40;99.90;;;;;;5015228;28;20426;-64
2022/02/05 08:50:56;;;;;;;9.38;1.17;;;21.40;99.90;;;;;;5013175;28;20458;-65
2022/02/05 08:53:23;;;;;;;12.13;1.83;;;21.30;99.90;;;;;;5014284;28;20038;-65
2022/02/05 08:55:53;;;;;;;7.38;1.30;;;21.30;99.90;;;;;;5014118;28;20030;-65
2022/02/05 08:58:21;;;;;;;11.02;1.73;;;21.30;99.90;;;;;;5014257;28;20022;-65
2022/02/05 09:00:52;;;;;;;8.45;1.73;;;21.40;99.90;;;;;;5012877;28;20038;-65
2022/02/05 09:03:36;;;;;;;10.38;1.20;;;21.30;99.90;;;;;;5012331;28;20057;-65
2022/02/05 09:06:05;;;;;;;9.32;1.15;;;21.30;99.90;;;;;;5012943;28;20124;-65
2022/02/05 09:08:34;;;;;;;6.80;1.67;;;21.30;99.90;;;;;;5012762;28;20118;-65
2022/02/05 09:11:31;;;;;;;7.88;1.13;;;21.30;99.90;;;;;;5013300;28;20041;-65
2022/02/05 09:16:49;;;;;;;15.43;1.35;;;21.30;99.90;;;;;;4995602;28;20057;-65
2022/02/05 09:19:16;;;;;;;6.30;1.00;;;21.30;99.90;;;;;;5002223;28;20034;-64
2022/02/05 09:21:43;;;;;;;7.47;0.80;;;21.30;99.90;;;;;;5012455;28;20025;-65
2022/02/05 09:24:11;;;;;;;6.85;1.00;;;21.30;99.90;;;;;;5011316;28;20471;-65
2022/02/05 09:26:43;;;;;;;8.25;1.83;;;21.30;99.90;;;;;;5003803;28;20018;-65
2022/02/05 09:29:18;;;;;;;10.02;2.15;;;21.20;99.90;;;;;;5012386;28;20138;-65
2022/02/05 09:31:45;;;;;;;10.05;1.00;;;21.30;99.90;;;;;;5010117;28;20033;-64
2022/02/05 09:34:13;;;;;;;12.32;1.25;;;21.30;99.90;;;;;;5014310;28;20034;-65
2022/02/05 09:36:41;;;;;;;7.70;1.27;;;21.20;99.90;;;;;;5012943;28;20029;-65
2022/02/05 09:39:13;;;;;;;11.55;1.88;;;21.20;99.90;;;;;;5013043;28;20554;-65
2022/02/05 09:41:41;;;;;;;13.50;1.30;;;21.20;99.90;;;;;;5006403;28;20032;-64
2022/02/05 09:44:10;;;;;;;6.50;0.95;;;21.20;99.90;;;;;;4999539;28;20100;-65
2022/02/05 09:46:37;;;;;;;12.55;1.30;;;21.20;99.90;;;;;;5011698;28;20119;-65
2022/02/05 09:49:05;;;;;;;7.38;1.42;;;21.20;99.90;;;;;;5013898;28;20022;-65
2022/02/05 09:51:39;;;;;;;9.38;1.55;;;21.20;99.90;;;;;;5013666;28;20066;-65
2022/02/05 09:54:08;;;;;;;6.85;1.25;;;21.20;99.90;;;;;;4981092;28;20041;-65
2022/02/05 09:56:38;;;;;;;10.82;1.85;;;21.10;99.90;;;;;;5012106;28;20322;-65
2022/02/05 09:59:06;;;;;;;9.98;1.13;;;21.10;99.90;;;;;;5011384;28;20033;-65
2022/02/05 10:01:37;;;;;;;6.47;1.15;;;21.20;99.90;;;;;;5004883;28;20096;-65
2022/02/05 10:04:12;;;;;;;14.18;1.90;;;21.30;99.90;;;;;;5010075;28;20030;-65
2022/02/05 10:06:48;;;;;;;11.70;1.70;;;21.30;99.90;;;;;;5011985;28;20033;-64
2022/02/05 10:09:17;;;;;;;8.98;1.05;;;21.20;99.90;;;;;;5011422;28;20378;-64
2022/02/05 10:11:59;;;;;;;13.98;1.52;;;21.30;99.90;;;;;;5012049;28;20387;-65
2022/02/05 10:14:33;;;;;;;6.90;1.45;;;21.20;99.90;;;;;;5006812;28;20083;-64
2022/02/05 10:17:05;;;;;;;14.45;2.33;;;21.20;99.90;;;;;;5011401;28;20394;-65
2022/02/05 10:20:01;;;;;;;13.25;2.13;;;21.10;99.90;;;;;;5011214;28;20034;-65
2022/02/05 10:22:37;;;;;;;9.85;1.40;;;21.10;99.90;;;;;;4999662;28;20046;-63
2022/02/05 10:25:27;;;;;;;7.53;1.23;;;21.10;99.90;;;;;;5014005;28;20030;-64
2022/02/05 10:27:55;;;;;;;15.82;2.10;;;21.00;99.90;;;;;;5010660;28;20539;-64
2022/02/05 10:30:28;;;;;;;9.50;1.38;;;21.00;99.90;;;;;;5017774;28;20441;-64
2022/02/05 10:33:25;;;;;;;10.30;1.50;;;21.00;99.90;;;;;;5012617;28;20025;-64
2022/02/05 10:36:10;;;;;;;7.88;1.33;;;21.00;99.90;;;;;;5005976;28;20072;-64
2022/02/05 10:44:23;;;;;;;7.88;1.17;;;20.90;99.90;;;;;;5011126;28;20029;-64
2022/02/05 10:46:55;;;;;;;7.50;1.23;;;20.90;99.90;;;;;;5011270;28;20034;-64
2022/02/05 10:49:49;;;;;;;9.60;1.20;;;20.90;99.90;;;;;;5012466;28;20042;-64
2022/02/05 10:52:35;;;;;;;14.53;2.33;;;20.90;99.90;;;;;;5007238;28;20473;-64
2022/02/05 10:57:53;;;;;;;9.95;1.58;;;21.00;99.90;;;;;;5007137;28;20030;-64
2022/02/05 11:05:50;;;;;;;9.30;1.67;;;21.00;99.90;;;;;;5011766;28;20072;-64
2022/02/05 11:08:19;;;;;;;9.77;2.00;;;20.90;99.90;;;;;;5002220;28;20034;-64
2022/02/05 11:18:57;;;;;;;13.25;1.58;;;20.90;99.90;;;;;;5008456;28;20112;-64
2022/02/05 11:21:27;;;;;;;13.77;1.88;;;20.90;99.90;;;;;;5015111;28;20026;-64
2022/02/05 11:24:01;;;;;;;13.18;1.75;;;20.90;99.90;;;;;;5012003;28;20050;-65
2022/02/05 11:26:29;;;;;;;15.85;2.85;;;20.90;99.90;;;;;;5013196;28;20053;-65
2022/02/05 11:29:04;;;;;;;10.27;1.92;;;21.00;99.90;;;;;;5018629;28;20030;-64
2022/02/05 11:31:40;;;;;;;13.20;1.48;;;21.00;99.90;;;;;;5016994;28;20030;-64
2022/02/05 11:34:26;;;;;;;12.57;1.50;;;21.00;99.90;;;;;;5012876;28;20445;-64
2022/02/05 11:37:06;;;;;;;12.25;1.40;;;21.00;99.90;;;;;;5011806;28;20080;-65
2022/02/05 11:39:50;;;;;;;11.10;1.70;;;21.00;99.90;;;;;;5016273;28;20056;-64
2022/02/05 11:42:36;;;;;;;12.32;2.03;;;21.00;99.90;;;;;;5013413;28;20033;-64
2022/02/05 11:45:24;;;;;;;8.65;1.48;;;21.00;99.90;;;;;;5005881;28;20018;-64
2022/02/05 11:47:52;;;;;;;11.70;1.25;;;21.00;99.90;;;;;;5012998;28;20053;-64
2022/02/05 11:50:24;;;;;;;12.98;1.83;;;21.00;99.90;;;;;;5012975;28;20037;-64
2022/02/05 11:52:51;;;;;;;10.85;1.33;;;21.00;99.90;;;;;;5010560;28;20049;-64
2022/02/05 11:55:34;;;;;;;11.07;1.33;;;21.00;99.90;;;;;;5011503;28;20382;-64
2022/02/05 11:58:06;;;;;;;8.15;1.20;;;20.90;99.90;;;;;;5005875;28;20394;-64
2022/02/05 12:00:54;;;;;;;12.20;1.63;;;20.90;99.90;;;;;;5026060;28;20033;-64
2022/02/05 12:03:41;;;;;;;11.52;1.67;;;20.90;99.90;;;;;;5009489;28;20054;-64
2022/02/05 12:06:11;;;;;;;10.65;2.25;;;20.90;99.90;;;;;;5008968;28;20087;-64
2022/02/05 12:08:43;;;;;;;10.75;1.75;;;20.90;99.90;;;;;;5014725;28;20029;-64
2022/02/05 12:11:31;;;;;;;8.60;1.45;;;21.00;99.90;;;;;;5009207;28;20501;-64
2022/02/05 12:14:09;;;;;;;11.43;1.80;;;20.90;99.90;;;;;;5009637;28;20054;-64
2022/02/05 12:16:38;;;;;;;12.75;1.52;;;20.90;99.90;;;;;;5010678;28;20117;-64
2022/02/05 12:19:16;;;;;;;10.77;1.33;;;20.90;99.90;;;;;;5012296;28;20057;-64
2022/02/05 12:22:12;;;;;;;12.32;2.85;;;20.80;99.90;;;;;;5009269;28;20034;-64
2022/02/05 12:25:25;;;;;;;12.10;1.27;;;20.80;99.90;;;;;;5006608;28;20026;-64
2022/02/05 12:27:52;;;;;;;12.32;1.48;;;20.80;99.90;;;;;;5012147;28;20418;-64
2022/02/05 12:30:38;;;;;;;9.77;1.67;;;20.80;99.90;;;;;;5011051;28;20019;-64
2022/02/05 12:33:08;;;;;;;9.07;1.20;;;20.80;99.90;;;;;;5010839;28;20048;-64
2022/02/05 12:35:49;;;;;;;12.00;1.50;;;20.70;99.90;;;;;;5008031;28;20033;-64
2022/02/05 12:38:16;;;;;;;10.82;1.40;;;20.70;99.90;;;;;;5009207;28;20018;-64
2022/02/05 12:40:45;;;;;;;9.70;1.73;;;20.70;99.90;;;;;;5009069;28;20065;-64
2022/02/05 12:43:14;;;;;;;9.48;1.45;;;20.70;99.90;;;;;;5009852;28;20058;-64
2022/02/05 12:45:57;;;;;;;9.00;1.10;;;20.70;99.90;;;;;;5006462;28;20540;-63
2022/02/05 12:48:28;;;;;;;16.92;2.38;;;20.60;99.90;;;;;;5028428;28;20030;-64
2022/02/05 12:51:00;;;;;;;15.88;1.73;;;20.60;99.90;;;;;;5012673;28;20087;-64
2022/02/05 12:53:36;;;;;;;13.00;1.63;;;20.60;99.90;;;;;;5010735;28;20034;-64
2022/02/05 12:56:21;;;;;;;12.48;1.73;;;20.60;99.90;;;;;;5009357;28;20020;-64
2022/02/05 12:59:03;;;;;;;16.30;3.20;;;20.60;99.90;;;;;;5009246;28;20018;-64
2022/02/05 13:01:32;;;;;;;12.23;2.25;;;20.60;99.90;;;;;;5022163;28;20028;-65
2022/02/05 13:04:15;;;;;;;12.07;1.60;;;20.60;99.90;;;;;;5007116;28;20037;-64
2022/02/05 13:06:42;;;;;;;14.32;2.55;;;20.60;99.90;;;;;;5010742;28;20032;-64
2022/02/05 13:09:22;;;;;;;8.95;1.80;;;20.60;99.90;;;;;;5008769;28;20483;-64
2022/02/05 13:12:00;;;;;;;6.25;1.27;;;20.60;99.90;;;;;;5009620;28;20026;-64
2022/02/05 13:14:50;;;;;;;13.45;1.75;;;20.60;99.90;;;;;;5010999;28;20022;-65
2022/02/05 13:17:47;;;;;;;9.88;1.55;;;20.60;99.90;;;;;;5017096;28;20026;-64
2022/02/05 13:34:25;;;;;;;12.95;1.92;;;20.70;99.90;;;;;;5010259;28;20040;-65
2022/02/05 13:39:41;;;;;;;13.40;2.17;;;20.70;99.90;;;;;;5008475;28;20112;-64
2022/02/05 13:42:25;;;;;;;15.40;2.50;;;20.70;99.90;;;;;;5049644;28;20118;-64
2022/02/05 13:47:44;;;;;;;12.43;1.77;;;20.70;99.90;;;;;;5052931;28;20034;-65
2022/02/05 13:50:37;;;;;;;19.70;2.60;;;20.60;99.90;;;;;;5053732;28;20140;-63
2022/02/05 13:53:11;;;;;;;15.50;2.22;;;20.60;99.90;;;;;;5051584;28;20033;-64
2022/02/05 13:55:44;;;;;;;14.68;2.05;;;20.60;99.90;;;;;;5051390;28;20044;-63
2022/02/05 13:58:16;;;;;;;20.48;2.92;;;20.70;99.90;;;;;;5051314;28;20104;-64
2022/02/05 14:01:01;;;;;;;17.17;2.78;;;20.70;99.90;;;;;;5034928;28;20021;-64
2022/02/05 14:03:28;;;;;;;18.88;3.47;;;20.60;99.90;;;;;;5049700;28;20036;-64
2022/02/05 14:06:10;;;;;;;15.95;2.60;;;20.60;99.90;;;;;;5052719;28;20031;-63
2022/02/05 14:08:48;;;;;;;10.75;2.10;;;20.60;99.90;;;;;;5054898;28;20082;-63
2022/02/05 14:11:25;;;;;;;11.93;2.10;;;20.60;99.90;;;;;;5034104;28;20374;-64
2022/02/05 14:14:00;;;;;;;11.32;2.30;;;20.60;99.90;;;;;;5036389;28;20068;-64
2022/02/05 14:16:37;;;;;;;15.40;2.22;;;20.60;99.90;;;;;;5053853;28;20528;-63
2022/02/05 14:19:05;;;;;;;14.60;2.00;;;20.60;99.90;;;;;;5045370;28;20021;-64
2022/02/05 14:21:39;;;;;;;13.10;1.85;;;20.60;99.90;;;;;;5054019;28;20029;-63
2022/02/05 14:24:18;;;;;;;16.65;2.97;;;20.60;99.90;;;;;;5040950;28;20040;-63
2022/02/05 14:26:58;;;;;;;14.93;1.63;;;20.60;99.90;;;;;;5051973;28;20032;-64
2022/02/05 14:29:26;;;;;;;10.32;2.33;;;20.60;99.90;;;;;;5046094;28;20021;-64
2022/02/05 14:31:55;;;;;;;16.48;2.38;;;20.60;99.90;;;;;;5049163;28;20025;-64
2022/02/05 14:42:24;;;;;;;14.05;2.58;;;20.50;99.90;;;;;;5035174;28;20064;-64
2022/02/05 14:44:51;;;;;;;12.43;1.85;;;20.60;99.90;;;;;;5032483;28;20030;-64
2022/02/05 14:47:21;;;;;;;14.30;2.22;;;20.60;99.90;;;;;;5037614;28;20082;-64
2022/02/05 14:49:48;;;;;;;9.05;1.77;;;20.50;99.90;;;;;;5032660;28;20018;-64
2022/02/05 14:52:16;;;;;;;11.57;1.70;;;20.50;99.90;;;;;;5037480;28;20029;-64
2022/02/05 14:54:44;;;;;;;12.00;1.42;;;20.50;99.90;;;;;;5034039;28;20108;-64
2022/02/05 14:57:15;;;;;;;13.57;2.15;;;20.40;99.90;;;;;;5032879;28;20025;-64
2022/02/05 14:59:43;;;;;;;11.10;1.83;;;20.40;99.90;;;;;;5033977;28;20056;-65
2022/02/05 15:02:12;;;;;;;13.95;1.55;;;20.40;99.90;;;;;;5019726;28;20052;-64
2022/02/05 15:04:41;;;;;;;14.93;2.47;;;20.30;99.90;;;;;;5017993;28;20094;-64
2022/02/05 15:07:09;;;;;;;11.93;2.03;;;20.30;99.90;;;;;;5042957;28;20033;-63
2022/02/05 15:09:36;;;;;;;10.95;1.63;;;20.30;99.90;;;;;;5044334;28;20478;-63
2022/02/05 15:12:04;;;;;;;18.92;2.38;;;20.30;99.90;;;;;;5035975;28;20029;-63
2022/02/05 15:14:32;;;;;;;12.07;1.85;;;20.30;99.90;;;;;;5038693;28;20037;-64
2022/02/05 15:16:59;;;;;;;17.77;2.33;;;20.40;99.90;;;;;;5036384;28;20032;-64
2022/02/05 15:19:27;;;;;;;14.32;1.90;;;20.40;99.90;;;;;;5039215;28;20105;-63
2022/02/05 15:21:54;;;;;;;12.52;1.75;;;20.40;99.90;;;;;;5032966;28;20080;-64
2022/02/05 15:24:21;;;;;;;12.13;3.22;;;20.40;99.90;;;;;;5029324;28;20030;-64
2022/02/05 15:26:50;;;;;;;9.70;2.22;;;20.40;99.90;;;;;;5033280;28;20108;-64
2022/02/05 15:29:17;;;;;;;10.88;2.22;;;20.40;99.90;;;;;;5034307;28;20030;-64
2022/02/05 15:31:46;;;;;;;11.75;1.42;;;20.40;99.90;;;;;;5033588;28;20040;-63
2022/02/05 15:34:14;;;;;;;8.63;2.38;;;20.40;99.90;;;;;;5026453;28;20563;-63
2022/02/05 15:36:55;;;;;;;8.32;1.80;;;20.40;99.90;;;;;;5034104;28;20496;-63
2022/02/05 15:39:35;;;;;;;9.55;1.35;;;20.30;99.90;;;;;;5045664;28;20040;-64
2022/02/05 15:44:48;;;;;;;9.65;2.22;;;20.40;99.90;;;;;;5018074;28;20037;-63
2022/02/05 15:47:15;;;;;;;7.00;1.08;;;20.30;99.90;;;;;;5018283;28;20021;-63
2022/02/05 15:49:42;;;;;;;13.02;1.50;;;20.30;99.90;;;;;;5015481;28;20574;-63
2022/02/05 15:52:12;;;;;;;14.40;1.83;;;20.20;99.90;;;;;;5014124;28;20019;-63
2022/02/05 15:54:40;;;;;;;8.98;1.10;;;20.30;99.90;;;;;;5015103;28;20247;-64
2022/02/05 16:02:27;;;;;;;11.02;2.05;;;20.30;99.90;;;;;;5015599;28;20030;-63
2022/02/05 16:04:55;;;;;;;21.85;4.18;;;20.40;99.90;;;;;;5018008;28;20410;-63
2022/02/05 16:07:22;;;;;;;14.20;1.92;;;20.30;99.90;;;;;;5016869;28;20056;-64
2022/02/05 16:09:49;;;;;;;7.47;1.33;;;20.10;99.90;;;;;;5016975;28;20028;-64
2022/02/05 16:12:16;;;;;;;8.10;2.00;;;20.10;99.90;;;;;;5017718;28;20034;-64
2022/02/05 16:14:44;;;;;;;9.63;2.00;;;20.00;99.90;;;;;;5019487;28;20026;-64